ADDS METAR Data INFO
IDs: Format: Raw Decoded Include TAF

Data at: 0254 UTC 21 Jan 2018

METAR for:KSUA (Stuart/Witham Fld, FL, US)
Text:KSUA 210150Z VRB05KT 7SM SKC 17/16 A3028
Temperature: 17.0°C ( 63°F)
Dewpoint: 16.0°C ( 61°F) [RH = 94%]
Pressure (altimeter):30.28 inches Hg (1025.5 mb)
Winds:variable direction winds at 6 MPH (5 knots; 2.6 m/s)
Visibility: 7 sm ( 11 km)
Ceiling:at least 12,000 feet AGL
Clouds:clear skies